Time;durP1;ratioP1;P1;durP2;ratioP2;P2;SDS_P1;SDS_P2;PMS_P1;PMS_P2;Temp;Humidity;BMP_temperature;BMP_pressure;BME280_temperature;BME280_humidity;BME280_pressure;Samples;Min_cycle;Max_cycle;Signal;HPM_P1;HPM_P2
2022/05/24 00:01:49;;;;;;;;;;;;;;;8.63;68.45;100741.84;1683915;81;22561;-81
2022/05/24 00:04:15;;;;;;;;;;;;;;;8.68;68.49;100752.07;1714051;81;20258;-81
2022/05/24 00:06:41;;;;;;;;;;;;;;;8.65;68.53;100746.75;1712115;81;20600;-81
2022/05/24 00:09:08;;;;;;;;;;;;;;;8.62;68.57;100745.75;1713451;82;20680;-82
2022/05/24 00:11:34;;;;;;;;;;;;;;;8.60;68.67;100748.31;1711124;82;20710;-82
2022/05/24 00:14:00;;;;;;;;;;;;;;;8.58;68.70;100748.69;1678680;82;22427;-82
2022/05/24 00:16:27;;;;;;;;;;;;;;;8.56;68.75;100746.44;1691595;81;20394;-82
2022/05/24 00:18:53;;;;;;;;;;;;;;;8.54;68.79;100742.45;1699205;81;20253;-82
2022/05/24 00:21:20;;;;;;;;;;;;;;;8.52;68.79;100739.28;1698603;82;20341;-83
2022/05/24 00:23:46;;;;;;;;;;;;;;;8.49;68.83;100741.83;1715443;81;20687;-84
2022/05/24 00:26:16;;;;;;;;;;;;;;;8.48;68.95;100734.35;1702946;81;21729;-84
2022/05/24 00:28:45;;;;;;;;;;;;;;;8.47;68.92;100733.90;1692156;81;20275;-83
2022/05/24 00:31:10;;;;;;;;;;;;;;;8.46;69.00;100735.16;1685382;81;20258;-83
2022/05/24 00:33:37;;;;;;;;;;;;;;;8.45;69.07;100732.96;1701937;81;20352;-84
2022/05/24 00:36:03;;;;;;;;;;;;;;;8.47;69.11;100731.70;1696073;81;20208;-84
2022/05/24 00:38:39;;;;;;;;;;;;;;;8.48;69.11;100727.80;1695559;81;21746;-84
2022/05/24 00:41:24;;;;;;;;;;;;;;;8.47;69.09;100728.66;1681891;81;20205;-82
2022/05/24 00:43:56;;;;;;;;;;;;;;;8.46;69.11;100733.41;1710616;81;20185;-83
2022/05/24 00:46:28;;;;;;;;;;;;;;;8.44;69.14;100721.98;1681971;81;20375;-83
2022/05/24 00:49:06;;;;;;;;;;;;;;;8.41;69.14;100717.94;1687931;81;20236;-82
2022/05/24 00:51:47;;;;;;;;;;;;;;;8.38;69.15;100721.75;1688765;81;22051;-82
2022/05/24 00:54:10;;;;;;;;;;;;;;;8.35;69.22;100719.02;1689851;81;20157;-82
2022/05/24 00:56:52;;;;;;;;;;;;;;;8.33;69.23;100715.06;1704675;81;20204;-82
2022/05/24 00:59:22;;;;;;;;;;;;;;;8.29;69.32;100710.95;1699052;81;21160;-83
2022/05/24 01:01:49;;;;;;;;;;;;;;;8.29;69.34;100713.58;1712037;81;20943;-83
2022/05/24 01:04:17;;;;;;;;;;;;;;;8.26;69.34;100707.82;1688840;81;22976;-83
2022/05/24 01:06:43;;;;;;;;;;;;;;;8.23;69.34;100715.57;1688726;81;20943;-83
2022/05/24 01:09:11;;;;;;;;;;;;;;;8.21;69.42;100706.77;1689005;81;20255;-83
2022/05/24 01:11:39;;;;;;;;;;;;;;;8.18;69.44;100704.03;1689078;81;20385;-82
2022/05/24 01:14:07;;;;;;;;;;;;;;;8.18;69.54;100702.32;1689290;81;20615;-83
2022/05/24 01:16:34;;;;;;;;;;;;;;;8.15;69.54;100701.32;1689136;81;22618;-83
2022/05/24 01:19:04;;;;;;;;;;;;;;;8.13;69.61;100703.00;1689194;81;21328;-83
2022/05/24 01:21:29;;;;;;;;;;;;;;;8.10;69.63;100704.20;1699644;81;20244;-83
2022/05/24 01:24:11;;;;;;;;;;;;;;;8.05;69.69;100705.77;1705468;81;20399;-83
2022/05/24 01:26:54;;;;;;;;;;;;;;;8.01;69.78;100699.52;1738753;81;20222;-82
2022/05/24 01:29:21;;;;;;;;;;;;;;;7.98;69.87;100689.83;1702596;81;21674;-82
2022/05/24 01:37:18;;;;;;;;;;;;;;;7.91;70.04;100686.52;1688835;81;20406;-82
2022/05/24 01:39:46;;;;;;;;;;;;;;;7.88;70.10;100679.88;1689070;81;20216;-82
2022/05/24 01:42:12;;;;;;;;;;;;;;;7.87;70.15;100679.83;1697933;81;21767;-82
2022/05/24 01:44:42;;;;;;;;;;;;;;;7.83;70.21;100681.84;1682976;81;20243;-82
2022/05/24 01:47:08;;;;;;;;;;;;;;;7.81;70.27;100677.88;1688372;81;20231;-82
2022/05/24 01:49:38;;;;;;;;;;;;;;;7.77;70.33;100674.26;1694905;81;21555;-83
2022/05/24 01:52:13;;;;;;;;;;;;;;;7.74;70.33;100671.95;1695598;82;20268;-82
2022/05/24 01:54:45;;;;;;;;;;;;;;;7.70;70.38;100668.75;1681784;81;22612;-82
2022/05/24 01:57:20;;;;;;;;;;;;;;;7.69;70.44;100663.03;1695159;82;20216;-83
2022/05/24 01:59:47;;;;;;;;;;;;;;;7.66;70.51;100658.58;1683397;81;20243;-83
2022/05/24 02:02:13;;;;;;;;;;;;;;;7.65;70.60;100659.83;1681482;81;20537;-82
2022/05/24 02:04:40;;;;;;;;;;;;;;;7.63;70.66;100663.70;1673563;83;20753;-82
2022/05/24 02:07:12;;;;;;;;;;;;;;;7.62;70.71;100658.01;1681967;81;22682;-82
2022/05/24 02:09:41;;;;;;;;;;;;;;;7.62;70.78;100662.33;1692826;81;20232;-83
2022/05/24 02:12:13;;;;;;;;;;;;;;;7.60;70.86;100651.80;1691144;81;20208;-82
2022/05/24 02:14:42;;;;;;;;;;;;;;;7.58;70.94;100650.45;1691824;81;21160;-83
2022/05/24 02:17:12;;;;;;;;;;;;;;;7.59;70.99;100658.77;1685248;81;20220;-82
2022/05/24 02:19:41;;;;;;;;;;;;;;;7.58;71.05;100649.14;1681635;81;21778;-82
2022/05/24 02:25:35;;;;;;;;;;;;;;;7.59;71.18;100645.67;1574714;88;20239;-83
2022/05/24 02:28:02;;;;;;;;;;;;;;;7.63;71.24;100640.55;1674001;82;20445;-83
2022/05/24 02:30:29;;;;;;;;;;;;;;;7.67;71.29;100638.51;1670174;83;20228;-82
2022/05/24 02:32:55;;;;;;;;;;;;;;;7.70;71.20;100636.89;1685001;83;21730;-82
2022/05/24 02:35:22;;;;;;;;;;;;;;;7.73;71.18;100642.24;1702476;84;20149;-82
2022/05/24 02:37:49;;;;;;;;;;;;;;;7.78;71.26;100634.53;1701595;83;20158;-82
2022/05/24 02:43:03;;;;;;;;;;;;;;;7.90;71.19;100628.80;1688061;81;20235;-83
2022/05/24 02:45:28;;;;;;;;;;;;;;;7.97;71.17;100631.68;1694099;81;22603;-83
2022/05/24 02:47:55;;;;;;;;;;;;;;;8.03;71.08;100624.87;1696772;81;20967;-83
2022/05/24 02:50:21;;;;;;;;;;;;;;;8.09;71.08;100622.44;1708473;82;20327;-83
2022/05/24 02:52:48;;;;;;;;;;;;;;;8.17;71.00;100627.53;1708710;82;21146;-82
2022/05/24 02:55:14;;;;;;;;;;;;;;;8.24;70.94;100622.97;1704307;81;20212;-82
2022/05/24 02:57:42;;;;;;;;;;;;;;;8.34;70.88;100621.53;1698935;81;22572;-83
2022/05/24 03:00:12;;;;;;;;;;;;;;;8.41;70.82;100615.64;1705235;81;21122;-82
2022/05/24 03:02:41;;;;;;;;;;;;;;;8.52;70.78;100615.98;1688521;81;20220;-84
2022/05/24 03:05:10;;;;;;;;;;;;;;;8.62;70.57;100620.69;1688520;81;20562;-84
2022/05/24 03:10:21;;;;;;;;;;;;;;;8.85;70.54;100611.31;1691013;81;22542;-83
2022/05/24 03:15:33;;;;;;;;;;;;;;;9.15;70.35;100609.56;1688414;81;20247;-84
2022/05/24 03:18:00;;;;;;;;;;;;;;;9.33;70.15;100603.06;1705738;82;21980;-84
2022/05/24 03:20:27;;;;;;;;;;;;;;;9.49;70.08;100609.18;1699852;81;20228;-83
2022/05/24 03:22:53;;;;;;;;;;;;;;;9.66;69.93;100604.81;1704124;81;23162;-82
2022/05/24 03:25:21;;;;;;;;;;;;;;;9.82;69.81;100604.36;1707996;82;20271;-83
2022/05/24 03:27:47;;;;;;;;;;;;;;;10.03;69.50;100602.70;1706114;82;20910;-83
2022/05/24 03:30:14;;;;;;;;;;;;;;;10.21;69.42;100590.43;1696975;81;21804;-83
2022/05/24 03:32:40;;;;;;;;;;;;;;;10.67;69.64;100606.41;1694874;81;20267;-83
2022/05/24 03:35:07;;;;;;;;;;;;;;;11.45;70.25;100594.85;1709038;81;21847;-83
2022/05/24 03:37:34;;;;;;;;;;;;;;;12.44;69.98;100591.25;1696176;82;21016;-82
2022/05/24 03:40:00;;;;;;;;;;;;;;;13.93;70.07;100590.84;1702945;81;21021;-83
2022/05/24 03:42:26;;;;;;;;;;;;;;;15.65;68.74;100586.43;1688681;81;20381;-83
2022/05/24 03:44:53;;;;;;;;;;;;;;;16.99;66.39;100585.48;1710329;81;20900;-82
2022/05/24 03:47:19;;;;;;;;;;;;;;;18.21;64.80;100584.27;1731276;81;22444;-83
2022/05/24 03:49:47;;;;;;;;;;;;;;;19.41;62.79;100579.80;1729471;81;20242;-83
2022/05/24 03:52:14;;;;;;;;;;;;;;;20.55;61.30;100583.73;1726543;81;20248;-84
2022/05/24 03:54:41;;;;;;;;;;;;;;;21.71;59.38;100576.89;1731488;81;20250;-84
2022/05/24 03:59:54;;;;;;;;;;;;;;;23.54;55.30;100567.89;1750483;81;21691;-84
2022/05/24 04:02:20;;;;;;;;;;;;;;;24.31;53.48;100568.06;1708428;81;21113;-84
2022/05/24 04:04:49;;;;;;;;;;;;;;;25.19;52.30;100570.27;1729155;81;20251;-84
2022/05/24 04:07:18;;;;;;;;;;;;;;;26.02;50.55;100567.47;1724690;81;20376;-85
2022/05/24 04:09:44;;;;;;;;;;;;;;;26.72;49.01;100572.97;1738316;81;20635;-84
2022/05/24 04:12:10;;;;;;;;;;;;;;;27.33;47.61;100574.70;1713306;81;21809;-84
2022/05/24 04:14:37;;;;;;;;;;;;;;;27.71;45.75;100579.59;1729337;81;20280;-84
2022/05/24 04:17:03;;;;;;;;;;;;;;;28.11;45.09;100580.33;1735647;80;20253;-84
2022/05/24 04:19:30;;;;;;;;;;;;;;;28.50;44.12;100579.22;1724539;81;20424;-83
2022/05/24 04:22:04;;;;;;;;;;;;;;;28.48;42.80;100578.43;1733294;81;20238;-82
2022/05/24 04:24:29;;;;;;;;;;;;;;;28.15;42.00;100573.41;1718748;81;21750;-82
2022/05/24 04:26:56;;;;;;;;;;;;;;;28.07;41.35;100573.32;1719282;82;20244;-83
2022/05/24 04:29:24;;;;;;;;;;;;;;;27.96;41.04;100570.28;1715009;81;20248;-83
2022/05/24 04:31:50;;;;;;;;;;;;;;;27.78;40.30;100566.66;1727296;81;20417;-83
2022/05/24 04:34:18;;;;;;;;;;;;;;;27.51;40.06;100570.23;1710974;82;20304;-90
2022/05/24 04:36:47;;;;;;;;;;;;;;;27.37;39.81;100567.30;1717378;81;20484;-89
2022/05/24 04:39:16;;;;;;;;;;;;;;;27.44;39.65;100567.41;1719865;81;20306;-89
2022/05/24 04:44:38;;;;;;;;;;;;;;;27.29;38.90;100563.16;1720283;81;20262;-86
2022/05/24 04:47:09;;;;;;;;;;;;;;;26.88;38.57;100567.29;1710298;82;20310;-87
2022/05/24 04:49:37;;;;;;;;;;;;;;;26.45;38.17;100566.97;1726680;81;21772;-83
2022/05/24 04:52:10;;;;;;;;;;;;;;;25.85;38.43;100566.79;1726831;81;20776;-84
2022/05/24 04:54:44;;;;;;;;;;;;;;;25.79;38.75;100561.18;1734156;81;20233;-85
2022/05/24 04:57:11;;;;;;;;;;;;;;;26.35;38.98;100562.41;1719240;81;20404;-92
2022/05/24 04:59:37;;;;;;;;;;;;;;;27.03;38.40;100568.41;1728038;80;20232;-94
2022/05/24 05:02:04;;;;;;;;;;;;;;;27.61;37.88;100562.08;1715144;81;21753;-94
2022/05/24 05:04:31;;;;;;;;;;;;;;;28.07;37.46;100559.80;1735327;82;20559;-94
2022/05/24 05:06:58;;;;;;;;;;;;;;;28.39;36.77;100555.03;1738345;81;20234;-92
2022/05/24 05:09:26;;;;;;;;;;;;;;;28.75;36.59;100550.86;1737921;81;20365;-85
2022/05/24 05:11:52;;;;;;;;;;;;;;;29.37;36.32;100552.92;1716013;81;20218;-85
2022/05/24 05:14:19;;;;;;;;;;;;;;;30.13;35.81;100557.61;1727318;82;21916;-84
2022/05/24 05:16:45;;;;;;;;;;;;;;;30.88;35.11;100550.29;1711355;81;20244;-85
2022/05/24 05:19:12;;;;;;;;;;;;;;;31.44;34.62;100557.16;1731686;81;20229;-85
2022/05/24 05:21:39;;;;;;;;;;;;;;;31.81;33.68;100547.92;1724752;81;20498;-85
2022/05/24 05:24:06;;;;;;;;;;;;;;;31.73;33.25;100550.30;1703028;82;20503;-84
2022/05/24 05:26:34;;;;;;;;;;;;;;;31.46;32.91;100545.69;1729113;81;21682;-85
2022/05/24 05:29:01;;;;;;;;;;;;;;;31.47;32.96;100544.73;1729046;81;20250;-85
2022/05/24 05:31:27;;;;;;;;;;;;;;;31.63;32.85;100536.91;1723223;81;20236;-84
2022/05/24 05:33:55;;;;;;;;;;;;;;;31.89;32.58;100532.43;1728054;81;20634;-85
2022/05/24 05:36:21;;;;;;;;;;;;;;;31.43;31.76;100532.28;1722509;82;20844;-84
2022/05/24 05:38:49;;;;;;;;;;;;;;;29.85;31.63;100537.53;1725137;81;21749;-84
2022/05/24 05:41:17;;;;;;;;;;;;;;;28.04;31.95;100534.72;1728630;81;20281;-85
2022/05/24 05:43:44;;;;;;;;;;;;;;;26.18;33.01;100529.42;1721467;82;20230;-85
2022/05/24 05:46:11;;;;;;;;;;;;;;;24.69;34.02;100529.98;1735493;81;20311;-84
2022/05/24 05:48:37;;;;;;;;;;;;;;;23.60;35.19;100531.89;1735010;81;20253;-85
2022/05/24 05:51:04;;;;;;;;;;;;;;;22.69;36.34;100533.25;1737554;82;21778;-84
2022/05/24 05:53:30;;;;;;;;;;;;;;;22.00;37.16;100529.73;1744785;80;20253;-84
2022/05/24 05:55:56;;;;;;;;;;;;;;;21.26;38.09;100531.02;1723463;82;20662;-84
2022/05/24 05:58:23;;;;;;;;;;;;;;;20.63;39.04;100528.37;1721616;81;20369;-84
2022/05/24 06:00:52;;;;;;;;;;;;;;;20.12;39.87;100529.30;1718200;82;20240;-83
2022/05/24 06:03:18;;;;;;;;;;;;;;;19.68;40.76;100531.34;1727845;81;21783;-84
2022/05/24 06:05:45;;;;;;;;;;;;;;;19.33;41.59;100530.09;1731593;81;20241;-84
2022/05/24 06:08:12;;;;;;;;;;;;;;;19.05;42.25;100534.50;1728089;81;20225;-84
2022/05/24 06:10:38;;;;;;;;;;;;;;;18.84;42.97;100537.88;1721301;82;20360;-85
2022/05/24 06:13:05;;;;;;;;;;;;;;;18.64;43.59;100538.53;1727461;81;20271;-85
2022/05/24 06:15:35;;;;;;;;;;;;;;;18.46;44.18;100537.81;1729181;81;21729;-85
2022/05/24 06:18:01;;;;;;;;;;;;;;;18.35;44.86;100542.37;1732288;82;21018;-85
2022/05/24 06:20:29;;;;;;;;;;;;;;;18.29;45.20;100541.57;1724838;82;20869;-85
2022/05/24 06:22:57;;;;;;;;;;;;;;;18.12;45.41;100532.41;1726097;81;20275;-85
2022/05/24 06:25:26;;;;;;;;;;;;;;;17.98;45.94;100532.52;1729133;81;20269;-83
2022/05/24 06:27:53;;;;;;;;;;;;;;;17.90;46.12;100537.05;1724805;81;21923;-84
2022/05/24 06:30:21;;;;;;;;;;;;;;;17.80;46.40;100532.22;1730099;82;20618;-84
2022/05/24 06:32:48;;;;;;;;;;;;;;;17.75;46.69;100533.56;1734303;82;20593;-84
2022/05/24 06:35:14;;;;;;;;;;;;;;;17.70;47.25;100526.09;1729924;81;20359;-83
2022/05/24 06:37:41;;;;;;;;;;;;;;;17.77;47.60;100530.44;1726923;81;20257;-83
2022/05/24 06:40:15;;;;;;;;;;;;;;;17.81;47.80;100524.64;1725439;81;22944;-85
2022/05/24 06:42:43;;;;;;;;;;;;;;;17.74;48.08;100498.54;1724817;81;20867;-83
2022/05/24 06:45:10;;;;;;;;;;;;;;;17.90;47.99;100519.73;1716959;81;20244;-83
2022/05/24 06:47:37;;;;;;;;;;;;;;;17.94;47.99;100516.14;1727485;81;20449;-83
2022/05/24 06:50:06;;;;;;;;;;;;;;;17.95;48.08;100517.92;1723340;81;20243;-84
2022/05/24 06:52:39;;;;;;;;;;;;;;;17.96;48.01;100513.92;1727940;81;22749;-84
2022/05/24 06:55:05;;;;;;;;;;;;;;;17.92;48.32;100493.52;1721783;81;20244;-84
2022/05/24 06:57:32;;;;;;;;;;;;;;;18.09;48.12;100505.34;1726051;82;20251;-83
2022/05/24 07:02:46;;;;;;;;;;;;;;;18.18;48.00;100504.38;1727087;81;20264;-84
2022/05/24 07:05:14;;;;;;;;;;;;;;;18.16;47.99;100500.84;1724593;81;22649;-84
2022/05/24 07:07:41;;;;;;;;;;;;;;;18.12;47.93;100501.78;1717833;81;20727;-83
2022/05/24 07:10:12;;;;;;;;;;;;;;;18.13;48.21;100502.20;1733979;81;20258;-84
2022/05/24 07:12:38;;;;;;;;;;;;;;;18.19;48.29;100487.05;1730059;82;20579;-84
2022/05/24 07:15:06;;;;;;;;;;;;;;;18.29;48.28;100486.95;1735281;81;20266;-84
2022/05/24 07:17:34;;;;;;;;;;;;;;;18.42;48.26;100479.25;1696900;82;20713;-84
2022/05/24 07:20:01;;;;;;;;;;;;;;;18.53;47.82;100482.67;1729966;81;20894;-84
2022/05/24 07:22:27;;;;;;;;;;;;;;;18.53;47.76;100469.34;1734396;81;20265;-85
2022/05/24 07:24:53;;;;;;;;;;;;;;;18.69;47.77;100472.69;1726062;82;20386;-84
2022/05/24 07:27:20;;;;;;;;;;;;;;;18.77;47.63;100476.15;1704666;82;20266;-84
2022/05/24 07:29:47;;;;;;;;;;;;;;;18.88;47.64;100478.68;1723098;81;21772;-84
2022/05/24 07:32:16;;;;;;;;;;;;;;;18.92;47.24;100464.43;1720797;81;20245;-84
2022/05/24 07:34:42;;;;;;;;;;;;;;;19.00;47.15;100466.98;1726555;81;20313;-84
2022/05/24 07:37:12;;;;;;;;;;;;;;;19.21;47.25;100459.98;1716122;81;21085;-85
2022/05/24 07:48:16;;;;;;;;;;;;;;;20.08;45.44;100463.91;1728190;81;20444;-84
2022/05/24 07:50:36;;;;;;;;;;;;;;;20.33;45.34;100455.84;1722440;81;21743;-84
2022/05/24 07:53:16;;;;;;;;;;;;;;;20.56;45.01;100452.69;1723218;81;20376;-85
2022/05/24 07:55:42;;;;;;;;;;;;;;;20.77;44.72;100452.72;1727810;81;22634;-85
2022/05/24 07:58:14;;;;;;;;;;;;;;;21.00;44.20;100444.63;1740945;80;20238;-84
2022/05/24 08:00:43;;;;;;;;;;;;;;;21.19;43.71;100445.11;1707149;81;20236;-84
2022/05/24 08:03:12;;;;;;;;;;;;;;;21.45;43.50;100441.80;1721289;81;20498;-85
2022/05/24 08:05:38;;;;;;;;;;;;;;;21.74;43.22;100445.56;1727029;81;20241;-84
2022/05/24 08:08:08;;;;;;;;;;;;;;;21.94;42.71;100440.56;1715195;82;20303;-84
2022/05/24 08:10:38;;;;;;;;;;;;;;;21.92;42.25;100441.06;1721895;81;20273;-84
2022/05/24 08:13:25;;;;;;;;;;;;;;;21.98;41.99;100440.02;1724160;82;20260;-84
2022/05/24 08:16:25;;;;;;;;;;;;;;;21.96;41.79;100423.54;1667267;85;20335;-86
2022/05/24 08:18:59;;;;;;;;;;;;;;;22.05;41.33;100432.67;1717580;81;20240;-85
2022/05/24 08:21:29;;;;;;;;;;;;;;;21.98;41.21;100433.31;1729504;81;20246;-84
2022/05/24 08:23:56;;;;;;;;;;;;;;;21.91;41.17;100434.40;1726323;81;20216;-84
2022/05/24 08:26:24;;;;;;;;;;;;;;;21.81;41.13;100434.20;1730512;81;20272;-84
2022/05/24 08:28:51;;;;;;;;;;;;;;;21.71;41.37;100440.27;1725746;82;20402;-84
2022/05/24 08:31:17;;;;;;;;;;;;;;;21.58;41.15;100439.70;1717594;81;20255;-85
2022/05/24 08:33:44;;;;;;;;;;;;;;;21.48;41.28;100442.20;1720678;81;21740;-84
2022/05/24 08:36:11;;;;;;;;;;;;;;;21.48;41.56;100438.19;1713272;82;20221;-84
2022/05/24 08:38:38;;;;;;;;;;;;;;;21.50;41.57;100431.00;1729521;81;20230;-85
2022/05/24 08:41:11;;;;;;;;;;;;;;;21.54;41.62;100429.52;1712235;81;21548;-84
2022/05/24 08:49:39;;;;;;;;;;;;;;;21.59;41.89;100428.55;1691088;83;20995;-84
2022/05/24 08:52:14;;;;;;;;;;;;;;;21.57;41.71;100404.48;1707377;81;20242;-85
2022/05/24 08:54:43;;;;;;;;;;;;;;;21.65;41.40;100423.03;1721073;81;20238;-85
2022/05/24 08:57:12;;;;;;;;;;;;;;;21.70;41.45;100425.14;1717418;82;20821;-85
2022/05/24 08:59:49;;;;;;;;;;;;;;;21.75;40.92;100423.19;1708301;81;21319;-85
2022/05/24 09:02:18;;;;;;;;;;;;;;;21.81;40.73;100416.36;1713734;82;21064;-85
2022/05/24 09:04:44;;;;;;;;;;;;;;;21.83;40.35;100410.49;1723879;81;20234;-84
2022/05/24 09:07:37;;;;;;;;;;;;;;;21.79;40.22;100416.86;1732495;81;20847;-85
2022/05/24 09:10:09;;;;;;;;;;;;;;;21.80;40.09;100417.27;1724417;81;20994;-84
2022/05/24 09:13:07;;;;;;;;;;;;;;;21.81;39.93;100397.60;1730794;81;21694;-84
2022/05/24 09:15:43;;;;;;;;;;;;;;;21.80;39.56;100408.36;1725155;81;21073;-83
2022/05/24 09:18:45;;;;;;;;;;;;;;;21.79;39.29;100413.28;1711161;81;20360;-83
2022/05/24 09:21:20;;;;;;;;;;;;;;;21.91;39.14;100411.16;1707232;82;20386;-84
2022/05/24 09:23:53;;;;;;;;;;;;;;;22.12;39.21;100415.50;1714367;81;20267;-85
2022/05/24 09:26:24;;;;;;;;;;;;;;;22.36;39.18;100417.98;1702384;81;21859;-84
2022/05/24 09:28:52;;;;;;;;;;;;;;;22.58;39.01;100420.92;1690872;81;20676;-84
2022/05/24 09:31:30;;;;;;;;;;;;;;;22.75;38.88;100417.72;1695729;81;20193;-84
2022/05/24 09:34:04;;;;;;;;;;;;;;;22.86;38.63;100415.58;1681640;81;21053;-85
2022/05/24 09:36:41;;;;;;;;;;;;;;;22.94;38.48;100422.05;1696014;81;20208;-85
2022/05/24 09:39:28;;;;;;;;;;;;;;;22.99;38.37;100418.77;1674264;82;21029;-86
2022/05/24 09:42:03;;;;;;;;;;;;;;;23.07;38.34;100422.58;1730663;82;20249;-86
2022/05/24 09:44:44;;;;;;;;;;;;;;;23.13;38.08;100424.19;1711585;81;20885;-86
2022/05/24 09:47:21;;;;;;;;;;;;;;;23.18;38.05;100420.42;1694502;81;20431;-85
2022/05/24 09:49:47;;;;;;;;;;;;;;;23.23;37.66;100416.23;1711160;81;20230;-84
2022/05/24 09:52:14;;;;;;;;;;;;;;;23.23;37.59;100425.16;1681961;83;21728;-85
2022/05/24 09:54:44;;;;;;;;;;;;;;;23.24;37.56;100427.41;1685698;83;20222;-85
2022/05/24 09:57:11;;;;;;;;;;;;;;;23.29;37.42;100420.05;1684755;83;20476;-86
2022/05/24 09:59:41;;;;;;;;;;;;;;;23.34;37.32;100415.41;1684561;83;20625;-84
2022/05/24 10:02:26;;;;;;;;;;;;;;;23.40;37.21;100411.17;1715563;82;20270;-86
2022/05/24 10:04:54;;;;;;;;;;;;;;;23.54;37.16;100405.80;1715390;82;22456;-86
2022/05/24 10:07:26;;;;;;;;;;;;;;;23.64;37.13;100418.87;1705856;82;20223;-85
2022/05/24 10:10:05;;;;;;;;;;;;;;;23.75;37.05;100413.61;1681694;83;20214;-85
2022/05/24 10:12:50;;;;;;;;;;;;;;;23.86;36.99;100421.73;1685245;83;21205;-86
2022/05/24 10:15:35;;;;;;;;;;;;;;;23.89;36.80;100415.34;1681691;83;20221;-85
2022/05/24 10:18:05;;;;;;;;;;;;;;;23.82;36.68;100414.70;1681679;83;23006;-85
2022/05/24 10:20:40;;;;;;;;;;;;;;;23.73;36.54;100413.66;1681590;83;20226;-85
2022/05/24 10:23:11;;;;;;;;;;;;;;;23.63;36.47;100409.06;1685715;83;20215;-85
2022/05/24 10:25:49;;;;;;;;;;;;;;;23.62;36.75;100403.74;1688473;83;20349;-85
2022/05/24 10:28:41;;;;;;;;;;;;;;;23.67;36.69;100412.05;1688661;83;20218;-84
2022/05/24 10:31:17;;;;;;;;;;;;;;;23.68;36.69;100403.05;1684827;83;21759;-85
2022/05/24 10:39:56;;;;;;;;;;;;;;;23.88;36.43;100392.11;1686853;83;20273;-85
2022/05/24 10:42:35;;;;;;;;;;;;;;;23.99;36.39;100402.48;1685807;83;20203;-85
2022/05/24 10:45:15;;;;;;;;;;;;;;;24.15;36.57;100396.06;1682073;83;21874;-85
2022/05/24 10:47:51;;;;;;;;;;;;;;;24.32;36.22;100393.61;1685147;83;20585;-85
2022/05/24 10:50:21;;;;;;;;;;;;;;;24.38;36.28;100393.84;1710827;82;20245;-84
2022/05/24 10:52:56;;;;;;;;;;;;;;;24.52;36.12;100396.94;1702577;81;21711;-84
2022/05/24 10:55:25;;;;;;;;;;;;;;;24.66;36.07;100383.41;1705068;81;20225;-85
2022/05/24 10:57:55;;;;;;;;;;;;;;;24.92;36.20;100383.23;1682023;81;21784;-85
2022/05/24 11:00:24;;;;;;;;;;;;;;;25.19;36.03;100389.33;1682027;81;20251;-85
2022/05/24 11:03:20;;;;;;;;;;;;;;;25.40;35.91;100383.53;1693045;81;20281;-85
2022/05/24 11:05:56;;;;;;;;;;;;;;;25.58;35.21;100391.31;1685571;82;20391;-85
2022/05/24 11:08:43;;;;;;;;;;;;;;;25.71;35.00;100377.29;1701670;81;20256;-85
2022/05/24 11:11:36;;;;;;;;;;;;;;;25.75;34.55;100383.84;1691458;81;21905;-84
2022/05/24 11:14:13;;;;;;;;;;;;;;;25.79;34.52;100376.02;1678370;82;20966;-84
2022/05/24 11:16:49;;;;;;;;;;;;;;;25.82;34.27;100374.99;1677360;83;20244;-84
2022/05/24 11:19:22;;;;;;;;;;;;;;;25.82;34.21;100386.27;1681668;80;20398;-84
2022/05/24 11:22:00;;;;;;;;;;;;;;;25.77;34.22;100383.30;1694333;81;20517;-85
2022/05/24 11:24:46;;;;;;;;;;;;;;;25.67;34.03;100388.67;1719125;81;21753;-86
2022/05/24 11:27:16;;;;;;;;;;;;;;;25.46;33.99;100395.00;1681711;81;20858;-84
2022/05/24 11:29:53;;;;;;;;;;;;;;;25.30;34.08;100395.66;1684647;81;20248;-84
2022/05/24 11:32:37;;;;;;;;;;;;;;;25.22;34.12;100392.34;1689874;82;20449;-85
2022/05/24 11:35:16;;;;;;;;;;;;;;;25.05;34.27;100394.39;1699196;82;20212;-85
2022/05/24 11:37:42;;;;;;;;;;;;;;;25.05;34.44;100391.70;1643274;84;21835;-84
2022/05/24 11:40:38;;;;;;;;;;;;;;;25.00;34.29;100394.59;1668477;84;20203;-84
2022/05/24 11:43:08;;;;;;;;;;;;;;;24.88;34.10;100395.55;1672257;83;20205;-84
2022/05/24 11:45:55;;;;;;;;;;;;;;;24.67;33.88;100391.91;1680136;83;21166;-84
2022/05/24 11:48:31;;;;;;;;;;;;;;;24.58;33.89;100401.20;1665271;84;20383;-84
2022/05/24 11:50:54;;;;;;;;;;;;;;;24.48;33.97;100397.09;1654914;85;21965;-84
2022/05/24 11:53:33;;;;;;;;;;;;;;;24.37;34.00;100408.25;1668980;84;20330;-84
2022/05/24 11:56:03;;;;;;;;;;;;;;;24.21;34.02;100410.17;1669970;85;20210;-84
2022/05/24 11:58:39;;;;;;;;;;;;;;;24.08;34.15;100406.16;1668954;84;20403;-85
2022/05/24 12:01:33;;;;;;;;;;;;;;;23.91;34.42;100411.27;1671425;84;20792;-85
2022/05/24 12:10:19;;;;;;;;;;;;;;;23.26;34.99;100421.52;1669711;85;20203;-84
2022/05/24 12:12:46;;;;;;;;;;;;;;;23.06;35.28;100427.52;1671846;84;20369;-84
2022/05/24 12:15:19;;;;;;;;;;;;;;;22.93;35.63;100428.80;1668418;84;20234;-85
2022/05/24 12:17:49;;;;;;;;;;;;;;;22.79;35.90;100423.41;1663182;84;22513;-85
2022/05/24 12:21:11;;;;;;;;;;;;;;;22.70;36.30;100432.60;1663791;85;20196;-85
2022/05/24 12:23:27;;;;;;;;;;;;;;;22.66;36.72;100431.41;1657142;85;20867;-84
2022/05/24 12:26:01;;;;;;;;;;;;;;;22.44;37.36;100423.12;1672330;84;20556;-85
2022/05/24 12:28:37;;;;;;;;;;;;;;;22.37;37.86;100436.28;1664156;84;20225;-84
2022/05/24 12:31:22;;;;;;;;;;;;;;;22.21;38.62;100432.67;1662845;85;21930;-85
2022/05/24 12:34:06;;;;;;;;;;;;;;;21.98;39.15;100440.45;1661455;84;20677;-85
2022/05/24 12:36:47;;;;;;;;;;;;;;;21.79;39.79;100439.63;1664330;84;20213;-85
2022/05/24 12:39:13;;;;;;;;;;;;;;;21.61;40.05;100444.99;1668269;84;20483;-84
2022/05/24 12:41:45;;;;;;;;;;;;;;;21.47;40.54;100450.71;1673582;84;20221;-84
2022/05/24 12:44:21;;;;;;;;;;;;;;;21.36;41.22;100444.23;1664253;84;21806;-85
2022/05/24 12:47:01;;;;;;;;;;;;;;;21.23;42.08;100444.55;1674735;83;20222;-85
2022/05/24 12:49:30;;;;;;;;;;;;;;;21.08;42.97;100445.36;1665130;84;21340;-85
2022/05/24 12:52:03;;;;;;;;;;;;;;;20.97;43.89;100440.70;1668279;84;20395;-84
2022/05/24 12:54:34;;;;;;;;;;;;;;;20.81;44.39;100443.30;1659018;84;20836;-85
2022/05/24 12:57:05;;;;;;;;;;;;;;;20.66;44.87;100437.36;1665642;84;21750;-85
2022/05/24 12:59:37;;;;;;;;;;;;;;;20.45;45.13;100440.47;1670445;84;20216;-84
2022/05/24 13:02:16;;;;;;;;;;;;;;;20.34;45.75;100442.02;1669231;84;20360;-84
2022/05/24 13:04:42;;;;;;;;;;;;;;;20.25;46.33;100444.87;1634513;85;21155;-85
2022/05/24 13:07:24;;;;;;;;;;;;;;;20.19;46.68;100440.53;1673741;84;20200;-85
2022/05/24 13:09:51;;;;;;;;;;;;;;;20.25;46.70;100447.08;1667791;84;21873;-85
2022/05/24 13:12:17;;;;;;;;;;;;;;;20.25;46.79;100448.88;1670015;84;20230;-85
2022/05/24 13:14:49;;;;;;;;;;;;;;;20.19;46.87;100452.09;1673500;84;20763;-85
2022/05/24 13:17:18;;;;;;;;;;;;;;;20.15;47.14;100453.53;1674224;84;21640;-84
2022/05/24 13:19:53;;;;;;;;;;;;;;;20.08;47.00;100462.56;1676317;84;20245;-83
2022/05/24 13:22:21;;;;;;;;;;;;;;;20.00;47.08;100458.70;1669882;85;21783;-84
2022/05/24 13:25:02;;;;;;;;;;;;;;;19.98;47.34;100461.40;1657324;84;20448;-84
2022/05/24 13:27:49;;;;;;;;;;;;;;;19.97;47.18;100452.07;1651296;85;20262;-84
2022/05/24 13:35:52;;;;;;;;;;;;;;;19.90;47.15;100462.47;1678948;84;20413;-85
2022/05/24 13:38:23;;;;;;;;;;;;;;;19.79;47.09;100462.66;1675885;84;20350;-85
2022/05/24 13:40:58;;;;;;;;;;;;;;;19.66;47.17;100459.27;1671802;84;20613;-85
2022/05/24 13:43:38;;;;;;;;;;;;;;;19.55;47.25;100459.45;1674885;84;20403;-86
2022/05/24 13:46:15;;;;;;;;;;;;;;;19.46;47.32;100466.27;1662397;84;20225;-86
2022/05/24 13:48:44;;;;;;;;;;;;;;;19.38;47.52;100471.73;1654874;84;22626;-83
2022/05/24 13:51:25;;;;;;;;;;;;;;;19.35;47.66;100473.56;1657641;84;20250;-84
2022/05/24 13:53:52;;;;;;;;;;;;;;;19.39;47.95;100472.64;1671145;84;20270;-84
2022/05/24 13:56:27;;;;;;;;;;;;;;;19.45;47.92;100468.98;1667679;84;20370;-84